Time;durP1;ratioP1;P1;durP2;ratioP2;P2;SDS_P1;SDS_P2;PMS_P1;PMS_P2;Temp;Humidity;BMP_temperature;BMP_pressure;BME280_temperature;BME280_humidity;BME280_pressure;Samples;Min_cycle;Max_cycle;Signal;HPM_P1;HPM_P2
2022/06/01 00:00:26;;;;;;;10.32;8.25;;;;;;;14.93;89.57;94634.41;1679296;85;21006;-56
2022/06/01 00:02:53;;;;;;;17.98;9.30;;;;;;;14.89;89.29;94630.45;1659711;85;21469;-56
2022/06/01 00:05:20;;;;;;;13.65;9.53;;;;;;;14.84;89.36;94624.81;1658708;85;21497;-55
2022/06/01 00:07:49;;;;;;;13.43;9.18;;;;;;;14.80;89.49;94626.38;1679251;85;21241;-56
2022/06/01 00:10:15;;;;;;;13.65;9.78;;;;;;;14.74;89.54;94621.98;1659733;85;20998;-55
2022/06/01 00:12:42;;;;;;;15.45;9.68;;;;;;;14.65;89.67;94620.06;1679348;85;20954;-55
2022/06/01 00:15:11;;;;;;;17.10;9.38;;;;;;;14.60;89.76;94619.98;1659614;85;21029;-54
2022/06/01 00:17:37;;;;;;;16.20;11.22;;;;;;;14.52;89.76;94619.59;1685432;83;21020;-55
2022/06/01 00:20:06;;;;;;;14.93;10.23;;;;;;;14.47;89.96;94618.84;1697441;84;21767;-55
2022/06/01 00:22:33;;;;;;;12.88;8.38;;;;;;;14.43;90.04;94620.89;1697750;84;20949;-56
2022/06/01 00:25:00;;;;;;;15.83;9.18;;;;;;;14.38;90.44;94620.92;1697536;84;20996;-54
2022/06/01 00:27:27;;;;;;;18.30;8.60;;;;;;;14.37;90.58;94615.88;1673711;84;21561;-54
2022/06/01 00:29:54;;;;;;;18.45;9.28;;;;;;;14.31;90.75;94614.38;1673575;84;20941;-55
2022/06/01 00:32:21;;;;;;;16.07;9.60;;;;;;;14.24;90.94;94620.90;1697369;84;21131;-55
2022/06/01 00:34:47;;;;;;;15.40;9.35;;;;;;;14.14;91.14;94618.80;1697288;84;21052;-54
2022/06/01 00:37:14;;;;;;;16.12;9.50;;;;;;;14.09;91.52;94607.61;1673599;84;20961;-55
2022/06/01 00:39:44;;;;;;;16.65;8.80;;;;;;;14.08;91.56;94613.00;1697730;84;21118;-54
2022/06/01 00:42:17;;;;;;;13.20;9.25;;;;;;;14.07;91.42;94608.70;1697367;83;21068;-54
2022/06/01 00:44:46;;;;;;;14.85;9.78;;;;;;;14.06;91.58;94614.88;1673817;84;21693;-55
2022/06/01 00:47:18;;;;;;;18.10;8.35;;;;;;;14.08;91.78;94615.16;1697297;84;20993;-55
2022/06/01 00:50:09;;;;;;;13.70;8.78;;;;;;;14.08;91.84;94608.84;1697348;84;21044;-55
2022/06/01 00:52:45;;;;;;;11.85;8.05;;;;;;;14.08;91.66;94600.55;1679503;84;21002;-55
2022/06/01 00:55:20;;;;;;;18.80;10.05;;;;;;;14.08;91.51;94600.55;1697121;84;21052;-56
2022/06/01 00:57:50;;;;;;;16.75;8.30;;;;;;;14.04;91.88;94607.67;1697678;84;21147;-55
2022/06/01 01:00:24;;;;;;;16.27;8.80;;;;;;;14.00;91.66;94605.67;1697386;84;21028;-55
2022/06/01 01:02:53;;;;;;;12.93;8.40;;;;;;;13.95;91.90;94604.95;1697363;84;20985;-55
2022/06/01 01:05:20;;;;;;;14.43;8.78;;;;;;;13.96;92.13;94605.73;1697444;84;21006;-55
2022/06/01 01:07:47;;;;;;;14.15;9.85;;;;;;;13.95;92.03;94605.55;1672260;84;21103;-56
2022/06/01 01:10:14;;;;;;;12.40;9.30;;;;;;;13.91;91.78;94605.75;1697323;84;21240;-55
2022/06/01 01:12:58;;;;;;;12.18;9.38;;;;;;;13.90;92.08;94606.21;1673518;84;20961;-55
2022/06/01 01:15:52;;;;;;;15.38;9.30;;;;;;;13.90;92.32;94602.84;1697365;84;20949;-55
2022/06/01 01:18:17;;;;;;;12.07;8.53;;;;;;;13.97;92.23;94603.11;1658056;84;20989;-55
2022/06/01 01:20:50;;;;;;;10.53;8.78;;;;;;;14.00;92.33;94592.48;1646536;86;20986;-55
2022/06/01 01:23:29;;;;;;;;;;;;;;;14.06;92.49;94596.11;1669266;86;21187;-55
2022/06/01 01:25:56;;;;;;;12.00;8.70;;;;;;;14.11;92.81;94594.84;1667290;85;20163;-55
2022/06/01 01:28:22;;;;;;;14.47;8.78;;;;;;;14.13;92.21;94592.97;1667504;86;20986;-55
2022/06/01 01:31:05;;;;;;;13.30;8.08;;;;;;;14.10;92.08;94587.00;1667251;84;21073;-56
2022/06/01 01:33:32;;;;;;;13.10;7.83;;;;;;;14.11;92.17;94592.68;1667374;84;20998;-56
2022/06/01 01:36:04;;;;;;;14.38;8.20;;;;;;;14.12;91.80;94596.37;1667426;84;21812;-56
2022/06/01 01:38:45;;;;;;;14.78;8.90;;;;;;;14.08;91.50;94588.87;1667601;86;21033;-55
2022/06/01 01:41:41;;;;;;;13.30;9.08;;;;;;;14.07;91.68;94586.58;1667561;86;20986;-54
2022/06/01 01:44:22;;;;;;;14.83;8.28;;;;;;;14.07;91.89;94592.11;1619761;86;21061;-54
2022/06/01 01:46:49;;;;;;;16.27;8.78;;;;;;;14.11;92.14;94578.84;1646020;86;21049;-54
2022/06/01 01:49:21;;;;;;;12.85;9.05;;;;;;;14.18;92.07;94586.83;1667343;84;21237;-54
2022/06/01 01:51:49;;;;;;;10.83;8.63;;;;;;;14.22;92.15;94588.79;1646141;85;21128;-54
2022/06/01 01:55:01;;;;;;;12.85;9.30;;;;;;;14.28;92.04;94590.43;1667741;84;20989;-55
2022/06/01 01:57:46;;;;;;;14.10;8.85;;;;;;;14.31;92.00;94591.47;1667269;86;21113;-55
2022/06/01 02:00:25;;;;;;;16.82;9.60;;;;;;;14.32;91.64;94584.72;1667768;86;20989;-54
2022/06/01 02:03:15;;;;;;;18.55;11.33;;;;;;;14.28;91.74;94579.36;1646081;86;21130;-53
2022/06/01 02:06:05;;;;;;;20.60;12.23;;;;;;;14.26;92.10;94578.30;1667185;86;21014;-54
2022/06/01 02:08:55;;;;;;;24.40;11.57;;;;;;;14.22;92.36;94580.48;1667220;86;21109;-54
2022/06/01 02:14:36;;;;;;;23.47;11.85;;;;;;;14.18;94.06;94584.06;1667187;84;21037;-55
2022/06/01 02:17:12;;;;;;;17.30;11.65;;;;;;;14.22;93.87;94577.72;1667679;84;21166;-54
2022/06/01 02:20:01;;;;;;;19.62;11.38;;;;;;;14.19;93.75;94582.83;1629459;87;21042;-54
2022/06/01 02:22:28;;;;;;;16.97;11.03;;;;;;;14.14;93.95;94578.67;1623137;87;21034;-54
2022/06/01 02:24:54;;;;;;;20.70;11.57;;;;;;;14.08;94.18;94579.80;1622337;87;20990;-55
2022/06/01 02:27:21;;;;;;;19.50;11.93;;;;;;;14.05;94.42;94584.30;1635383;87;21030;-55
2022/06/01 02:29:53;;;;;;;18.12;11.53;;;;;;;14.08;95.22;94586.72;1633985;87;22044;-55
2022/06/01 02:32:19;;;;;;;20.30;11.80;;;;;;;14.14;95.52;94582.08;1623996;87;21049;-55
2022/06/01 02:34:46;;;;;;;14.15;9.98;;;;;;;14.16;95.31;94590.70;1633926;86;20975;-55
2022/06/01 02:37:14;;;;;;;14.10;9.05;;;;;;;14.22;95.92;94597.09;1635350;87;21458;-55
2022/06/01 02:39:44;;;;;;;13.53;9.90;;;;;;;14.27;95.28;94592.28;1633856;86;21149;-55
2022/06/01 02:42:26;;;;;;;14.70;10.08;;;;;;;14.30;94.99;94588.55;1635485;87;21100;-55
2022/06/01 02:45:09;;;;;;;16.63;9.80;;;;;;;14.34;94.92;94582.23;1634022;86;20983;-55
2022/06/01 02:47:38;;;;;;;20.40;9.78;;;;;;;14.36;94.62;94591.58;1635371;87;21461;-54
2022/06/01 02:50:12;;;;;;;17.07;8.73;;;;;;;14.41;94.71;94595.70;1634106;87;21118;-54
2022/06/01 02:52:39;;;;;;;20.15;11.38;;;;;;;14.43;94.12;94589.20;1622636;87;21082;-54
2022/06/01 02:55:08;;;;;;;17.48;11.75;;;;;;;14.43;94.06;94591.97;1635130;87;21198;-54
2022/06/01 02:57:40;;;;;;;21.55;12.53;;;;;;;14.43;93.75;94596.13;1633790;87;20971;-54
2022/06/01 03:00:18;;;;;;;18.67;12.13;;;;;;;14.41;93.55;94589.55;1635406;86;21101;-55
2022/06/01 03:02:48;;;;;;;19.35;10.72;;;;;;;14.39;93.75;94595.41;1634247;87;20974;-54
2022/06/01 03:05:15;;;;;;;16.70;10.38;;;;;;;14.41;94.15;94590.16;1634984;87;21100;-54
2022/06/01 03:07:43;;;;;;;21.30;11.75;;;;;;;14.43;93.99;94587.68;1633892;87;21875;-54
2022/06/01 03:10:09;;;;;;;21.30;11.93;;;;;;;14.39;94.13;94582.95;1635109;87;21062;-54
2022/06/01 03:12:38;;;;;;;17.60;11.48;;;;;;;14.36;94.31;94588.06;1633862;87;21026;-54
2022/06/01 03:15:07;;;;;;;15.78;11.45;;;;;;;14.34;94.26;94589.16;1635169;86;21043;-55
2022/06/01 03:17:35;;;;;;;16.40;10.45;;;;;;;14.31;94.43;94592.85;1633875;87;20975;-55
2022/06/01 03:20:03;;;;;;;18.30;11.35;;;;;;;14.32;94.40;94599.94;1623718;87;21795;-55
2022/06/01 03:22:30;;;;;;;16.32;11.55;;;;;;;14.31;94.40;94602.53;1622468;87;21033;-55
2022/06/01 03:24:57;;;;;;;16.40;11.12;;;;;;;14.33;94.79;94602.85;1635129;87;21153;-55
2022/06/01 03:27:24;;;;;;;18.25;11.33;;;;;;;14.36;94.99;94608.82;1633801;87;21446;-55
2022/06/01 03:29:51;;;;;;;15.75;11.15;;;;;;;14.43;95.43;94611.98;1635333;87;20979;-55
2022/06/01 03:32:19;;;;;;;18.32;9.88;;;;;;;14.55;95.19;94604.79;1634030;86;21518;-54
2022/06/01 03:34:47;;;;;;;17.65;10.10;;;;;;;14.66;94.80;94600.07;1635164;87;20990;-54
2022/06/01 03:37:13;;;;;;;15.13;11.05;;;;;;;14.75;94.60;94610.44;1633803;87;20991;-54
2022/06/01 03:39:40;;;;;;;12.82;10.45;;;;;;;14.83;94.03;94608.80;1635256;86;21026;-54
2022/06/01 03:42:08;;;;;;;15.35;10.80;;;;;;;14.90;93.64;94615.36;1633838;87;21017;-55
2022/06/01 03:47:20;;;;;;;17.62;9.88;;;;;;;15.12;92.76;94621.88;1633828;87;21019;-55
2022/06/01 03:49:47;;;;;;;13.70;10.82;;;;;;;15.19;91.82;94624.28;1622420;87;21121;-54
2022/06/01 03:52:14;;;;;;;24.25;10.40;;;;;;;15.22;91.34;94621.30;1622419;87;21042;-55
2022/06/01 03:54:41;;;;;;;13.10;9.70;;;;;;;15.27;91.29;94619.25;1635166;87;21357;-55
2022/06/01 03:57:08;;;;;;;17.02;9.18;;;;;;;15.34;90.82;94613.34;1633791;87;21240;-55
2022/06/01 03:59:36;;;;;;;9.20;7.75;;;;;;;15.43;90.39;94619.39;1635252;86;21450;-54
2022/06/01 04:02:05;;;;;;;12.23;8.25;;;;;;;15.50;89.64;94616.98;1622339;87;20978;-54
2022/06/01 04:04:33;;;;;;;11.05;8.08;;;;;;;15.59;89.22;94619.66;1635170;87;21014;-54
2022/06/01 04:06:59;;;;;;;9.53;8.13;;;;;;;15.71;88.44;94615.78;1633749;87;21128;-55
2022/06/01 04:09:29;;;;;;;14.53;8.70;;;;;;;15.79;87.83;94621.69;1635234;86;21744;-54
2022/06/01 04:11:56;;;;;;;8.40;6.80;;;;;;;15.89;87.24;94618.30;1634137;87;20991;-54
2022/06/01 04:14:24;;;;;;;12.75;8.10;;;;;;;16.00;86.35;94622.63;1635239;86;20995;-54
2022/06/01 04:16:51;;;;;;;9.63;7.22;;;;;;;16.09;85.85;94620.34;1633908;86;21054;-57
2022/06/01 04:19:18;;;;;;;9.73;8.05;;;;;;;16.19;85.60;94617.55;1637354;86;21030;-58
2022/06/01 04:21:48;;;;;;;13.35;7.92;;;;;;;16.26;84.97;94612.98;1691139;85;22036;-57
2022/06/01 04:24:17;;;;;;;9.83;6.80;;;;;;;16.35;84.85;94608.08;1671339;84;21038;-55
2022/06/01 04:26:43;;;;;;;9.18;5.72;;;;;;;16.42;83.79;94602.09;1691224;84;20965;-54
2022/06/01 04:29:10;;;;;;;7.97;7.08;;;;;;;16.39;83.30;94608.62;1694623;84;21477;-55
2022/06/01 04:31:36;;;;;;;14.13;8.10;;;;;;;16.36;83.14;94606.83;1691197;84;21437;-53
2022/06/01 04:34:04;;;;;;;13.40;7.80;;;;;;;16.31;82.98;94603.31;1689247;82;21299;-58
2022/06/01 04:36:33;;;;;;;9.95;6.80;;;;;;;16.28;83.30;94607.70;1627747;85;21553;-56
2022/06/01 04:38:59;;;;;;;12.33;6.75;;;;;;;16.30;83.29;94603.17;1678516;85;20982;-54
2022/06/01 04:41:27;;;;;;;11.68;6.83;;;;;;;16.29;83.23;94604.42;1678644;85;21566;-53
2022/06/01 04:43:54;;;;;;;15.98;6.95;;;;;;;16.29;82.99;94604.42;1678527;85;21072;-53
2022/06/01 04:46:22;;;;;;;20.05;7.37;;;;;;;16.31;82.98;94607.47;1678642;85;21091;-54
2022/06/01 04:48:50;;;;;;;7.30;5.70;;;;;;;16.35;82.69;94609.47;1678540;85;21009;-54
2022/06/01 04:51:18;;;;;;;15.18;6.78;;;;;;;16.39;82.53;94599.66;1687700;85;21066;-53
2022/06/01 04:53:44;;;;;;;11.83;6.85;;;;;;;16.48;82.27;94608.45;1678639;85;21025;-54
2022/06/01 04:56:12;;;;;;;11.78;6.60;;;;;;;16.58;81.96;94609.84;1678587;85;21074;-53
2022/06/01 04:58:40;;;;;;;6.87;6.15;;;;;;;16.69;81.41;94606.55;1676751;85;21156;-53
2022/06/01 05:01:07;;;;;;;7.40;5.58;;;;;;;16.78;80.95;94609.80;1675497;85;20996;-54
2022/06/01 05:03:34;;;;;;;9.55;5.90;;;;;;;16.84;80.60;94603.05;1652074;85;21607;-64
2022/06/01 05:06:01;;;;;;;13.68;6.40;;;;;;;16.88;80.13;94605.62;1651164;85;21437;-54
2022/06/01 05:08:29;;;;;;;7.20;5.60;;;;;;;16.92;79.96;94603.38;1675589;85;20957;-54
2022/06/01 05:10:56;;;;;;;6.78;5.95;;;;;;;16.99;80.00;94593.97;1650931;85;21247;-57
2022/06/01 05:13:22;;;;;;;9.98;6.60;;;;;;;17.00;80.81;94592.72;1675446;85;21085;-53
2022/06/01 05:15:53;;;;;;;9.93;6.42;;;;;;;17.00;88.36;94582.21;1675480;85;20945;-56
2022/06/01 05:18:21;;;;;;;9.38;6.67;;;;;;;17.04;85.50;94588.31;1675707;85;20981;-57
2022/06/01 05:20:48;;;;;;;13.65;6.85;;;;;;;17.05;83.54;94595.39;1652254;85;20980;-51
2022/06/01 05:23:18;;;;;;;11.18;6.70;;;;;;;17.07;82.79;94591.52;1675498;85;21105;-52
2022/06/01 05:25:46;;;;;;;10.82;6.53;;;;;;;17.16;81.69;94594.11;1675559;85;20984;-54
2022/06/01 05:28:20;;;;;;;13.13;6.12;;;;;;;17.21;81.25;94589.21;1675497;85;21104;-56
2022/06/01 05:30:47;;;;;;;18.85;7.55;;;;;;;17.29;80.84;94588.91;1669038;85;21093;-56
2022/06/01 05:33:14;;;;;;;9.18;6.45;;;;;;;17.39;80.30;94589.66;1648174;86;21516;-55
2022/06/01 05:35:41;;;;;;;6.20;5.60;;;;;;;17.47;79.77;94584.40;1620798;87;21169;-54
2022/06/01 05:38:09;;;;;;;8.08;6.15;;;;;;;17.53;78.94;94586.58;1644614;85;21026;-54
2022/06/01 05:40:36;;;;;;;9.20;6.45;;;;;;;17.57;78.38;94581.55;1642582;87;21029;-57
2022/06/01 05:43:13;;;;;;;9.65;6.55;;;;;;;17.63;78.21;94575.41;1639922;86;21490;-56
2022/06/01 05:45:40;;;;;;;11.83;6.15;;;;;;;17.68;77.91;94578.84;1673674;85;20983;-56
2022/06/01 05:48:09;;;;;;;18.05;7.20;;;;;;;17.73;77.34;94571.16;1675329;85;21218;-59
2022/06/01 05:50:37;;;;;;;6.97;5.53;;;;;;;17.82;77.09;94583.48;1674557;85;21060;-59
2022/06/01 05:53:04;;;;;;;7.15;5.85;;;;;;;17.92;76.04;94577.83;1673972;85;21095;-59
2022/06/01 05:55:32;;;;;;;15.78;5.97;;;;;;;18.05;75.52;94578.16;1673335;85;21058;-58
2022/06/01 05:58:00;;;;;;;10.28;5.80;;;;;;;18.16;74.96;94574.80;1672365;84;21092;-60
2022/06/01 06:00:27;;;;;;;12.58;6.10;;;;;;;18.23;74.82;94575.08;1672988;84;21550;-62
2022/06/01 06:02:54;;;;;;;11.85;5.67;;;;;;;18.34;74.51;94576.55;1644464;85;21043;-63
2022/06/01 06:08:09;;;;;;;9.80;5.62;;;;;;;18.55;74.17;94581.29;1596317;86;21064;-66
2022/06/01 06:10:37;;;;;;;9.83;6.47;;;;;;;18.65;73.69;94568.02;1629035;87;22251;-60
2022/06/01 06:13:05;;;;;;;9.58;6.45;;;;;;;18.71;73.32;94574.38;1617714;86;21160;-59
2022/06/01 06:15:32;;;;;;;7.90;6.10;;;;;;;18.78;73.18;94568.30;1578033;87;21571;-60
2022/06/01 06:18:01;;;;;;;7.30;5.92;;;;;;;18.87;72.79;94572.23;1621796;87;21154;-59
2022/06/01 06:20:30;;;;;;;9.00;6.20;;;;;;;18.97;72.86;94567.20;1621943;86;21196;-59
2022/06/01 06:22:57;;;;;;;17.42;6.85;;;;;;;19.08;72.04;94561.00;1618592;88;20988;-66
2022/06/01 06:25:24;;;;;;;8.78;6.25;;;;;;;19.22;72.00;94561.39;1611893;85;21239;-63
2022/06/01 06:27:52;;;;;;;9.98;6.55;;;;;;;19.37;72.10;94557.71;1641083;86;22143;-63
2022/06/01 06:30:19;;;;;;;10.58;5.55;;;;;;;19.51;71.71;94552.50;1619684;85;21610;-61
2022/06/01 06:32:47;;;;;;;7.62;5.78;;;;;;;19.62;71.04;94551.11;1646481;85;21110;-62
2022/06/01 06:35:14;;;;;;;13.72;5.25;;;;;;;19.71;70.38;94555.01;1639898;87;21219;-61
2022/06/01 06:37:43;;;;;;;11.53;6.35;;;;;;;19.80;70.03;94550.56;1628438;86;21100;-63
2022/06/01 06:40:11;;;;;;;10.00;5.62;;;;;;;19.91;69.54;94544.93;1639891;85;21215;-62
2022/06/01 06:42:38;;;;;;;9.03;6.20;;;;;;;20.04;69.30;94545.80;1618404;85;21582;-64
2022/06/01 06:45:06;;;;;;;13.05;6.05;;;;;;;20.18;69.36;94539.93;1633310;85;21116;-64
2022/06/01 06:47:33;;;;;;;10.38;5.37;;;;;;;20.31;68.33;94535.30;1615887;87;21899;-62
2022/06/01 06:50:01;;;;;;;14.83;6.42;;;;;;;20.44;67.52;94541.70;1650782;85;21471;-61
2022/06/01 06:52:28;;;;;;;8.60;5.50;;;;;;;20.58;66.88;94529.44;1633053;85;21055;-63
2022/06/01 06:54:55;;;;;;;6.50;5.35;;;;;;;20.74;66.60;94526.53;1635535;86;21429;-67
2022/06/01 06:57:26;;;;;;;7.58;5.53;;;;;;;20.89;65.88;94520.64;1584850;89;21012;-64
2022/06/01 06:59:53;;;;;;;6.10;4.72;;;;;;;21.04;65.21;94519.62;1611194;85;21053;-68
2022/06/01 07:02:20;;;;;;;7.72;6.35;;;;;;;21.17;64.57;94519.78;1628084;85;22021;-69
2022/06/01 07:04:47;;;;;;;9.93;5.20;;;;;;;21.31;64.32;94511.65;1612317;87;21037;-71
2022/06/01 07:07:17;;;;;;;9.18;5.55;;;;;;;21.44;63.33;94513.20;1640911;85;33655;-69
2022/06/01 07:09:43;;;;;;;6.50;4.83;;;;;;;21.60;63.45;94506.66;1618975;87;21126;-62
2022/06/01 07:12:12;;;;;;;8.23;4.65;;;;;;;21.79;62.82;94506.10;1644830;85;21029;-62
2022/06/01 07:14:39;;;;;;;5.50;4.60;;;;;;;21.98;60.60;94502.73;1620561;87;21413;-61
2022/06/01 07:17:06;;;;;;;6.92;4.50;;;;;;;22.14;60.13;94506.08;1642205;86;21089;-61
2022/06/01 07:19:33;;;;;;;7.97;5.17;;;;;;;22.31;60.17;94504.48;1611127;87;21927;-65
2022/06/01 07:22:00;;;;;;;6.78;4.67;;;;;;;22.35;59.55;94508.51;1609723;87;20945;-67
2022/06/01 07:24:29;;;;;;;5.47;4.22;;;;;;;22.38;59.64;94512.31;1616601;87;21076;-63
2022/06/01 07:26:58;;;;;;;8.20;4.00;;;;;;;22.40;57.86;94509.73;1615094;87;21060;-67
2022/06/01 07:29:26;;;;;;;8.03;4.10;;;;;;;22.36;56.38;94513.45;1640752;87;21035;-61
2022/06/01 07:31:53;;;;;;;6.83;4.75;;;;;;;22.26;55.94;94511.66;1630592;87;21022;-60
2022/06/01 07:34:20;;;;;;;8.70;5.67;;;;;;;22.15;55.61;94509.64;1640808;85;21538;-64
2022/06/01 07:36:49;;;;;;;7.08;4.95;;;;;;;22.05;56.08;94509.25;1619761;87;21077;-62
2022/06/01 07:44:52;;;;;;;14.20;6.25;;;;;;;21.96;57.06;94503.88;1664336;85;21110;-61
2022/06/01 07:47:19;;;;;;;10.25;4.92;;;;;;;21.92;57.04;94502.80;1659834;86;20995;-59
2022/06/01 07:49:46;;;;;;;4.17;3.22;;;;;;;22.00;56.43;94499.50;1673259;85;21161;-61
2022/06/01 07:52:13;;;;;;;10.15;3.83;;;;;;;22.15;54.64;94508.98;1622484;86;21274;-60
2022/06/01 07:54:42;;;;;;;7.30;3.50;;;;;;;22.36;53.93;94510.02;1632946;86;20965;-62
2022/06/01 07:57:10;;;;;;;7.75;3.62;;;;;;;22.50;52.28;94506.02;1628091;86;21089;-61
2022/06/01 07:59:38;;;;;;;5.17;3.60;;;;;;;22.64;51.49;94501.27;1628495;87;21089;-61
2022/06/01 08:02:09;;;;;;;5.60;3.40;;;;;;;22.79;51.55;94499.50;1641576;85;21051;-61
2022/06/01 08:04:34;;;;;;;4.58;3.30;;;;;;;22.93;50.17;94505.30;1672200;85;21307;-62
2022/06/01 08:07:01;;;;;;;6.55;3.33;;;;;;;23.06;48.94;94498.31;1622422;86;21010;-59
2022/06/01 08:09:28;;;;;;;7.08;3.15;;;;;;;23.18;48.40;94497.55;1634458;87;21089;-60
2022/06/01 08:14:41;;;;;;;14.93;3.80;;;;;;;23.52;47.70;94497.84;1658052;86;21175;-62
2022/06/01 08:17:09;;;;;;;13.83;4.70;;;;;;;23.77;46.83;94503.38;1665606;85;21254;-61
2022/06/01 08:19:41;;;;;;;7.47;3.08;;;;;;;23.97;44.43;94506.25;1631816;86;21051;-61
2022/06/01 08:22:10;;;;;;;4.35;2.55;;;;;;;24.13;44.16;94497.48;1659264;85;21482;-61
2022/06/01 08:24:37;;;;;;;5.42;3.33;;;;;;;24.25;43.72;94491.12;1659128;86;21101;-63
2022/06/01 08:27:04;;;;;;;4.30;2.87;;;;;;;24.31;43.80;94492.39;1635942;86;21115;-59
2022/06/01 08:29:30;;;;;;;5.55;3.00;;;;;;;24.40;43.78;94503.20;1670383;85;21145;-58
2022/06/01 08:31:58;;;;;;;5.45;2.50;;;;;;;24.53;42.40;94494.78;1661527;86;21081;-60
2022/06/01 08:34:25;;;;;;;4.97;2.45;;;;;;;24.60;42.27;94500.48;1659605;85;21141;-61
2022/06/01 08:36:52;;;;;;;6.28;2.90;;;;;;;24.58;41.01;94499.53;1610271;88;21102;-59
2022/06/01 08:39:18;;;;;;;11.18;3.67;;;;;;;24.51;41.24;94504.36;1631106;87;21166;-59
2022/06/01 08:41:45;;;;;;;6.95;3.17;;;;;;;24.40;41.67;94503.95;1653729;85;21170;-59
2022/06/01 08:44:27;;;;;;;5.50;3.10;;;;;;;24.34;42.06;94499.09;1626731;85;21131;-60
2022/06/01 08:47:00;;;;;;;10.32;3.90;;;;;;;24.28;41.82;94504.72;1645811;87;21087;-60
2022/06/01 08:49:30;;;;;;;10.35;2.90;;;;;;;24.27;42.65;94504.62;1648183;85;21514;-61
2022/06/01 08:51:57;;;;;;;7.05;2.62;;;;;;;24.30;41.22;94502.12;1680370;84;21085;-60
2022/06/01 08:54:24;;;;;;;13.38;3.17;;;;;;;24.39;41.11;94500.29;1645260;85;21255;-67
2022/06/01 08:56:55;;;;;;;11.75;2.95;;;;;;;24.53;41.20;94501.82;1621476;85;21041;-64
2022/06/01 08:59:33;;;;;;;8.18;2.70;;;;;;;24.63;40.49;94485.98;1672434;85;21015;-65
2022/06/01 09:02:28;;;;;;;7.92;3.45;;;;;;;24.78;40.72;94494.61;1668452;84;21362;-65
2022/06/01 09:05:20;;;;;;;9.50;3.60;;;;;;;24.87;40.13;94494.13;1662933;84;21036;-65
2022/06/01 09:08:00;;;;;;;6.05;2.95;;;;;;;24.94;39.78;94490.66;1655918;84;21263;-63
2022/06/01 09:10:47;;;;;;;6.35;2.62;;;;;;;25.02;39.39;94495.70;1669609;84;21214;-61
2022/06/01 09:13:23;;;;;;;7.55;2.50;;;;;;;24.95;39.14;94494.98;1659956;84;21386;-64
2022/06/01 09:16:04;;;;;;;9.73;2.87;;;;;;;24.80;38.38;94496.98;1671077;84;21050;-64
2022/06/01 09:18:41;;;;;;;7.90;3.02;;;;;;;24.74;39.20;94498.41;1649028;85;21056;-65
2022/06/01 09:24:08;;;;;;;3.77;2.20;;;;;;;24.95;39.18;94497.14;1672499;84;21092;-63
2022/06/01 09:26:35;;;;;;;4.47;2.58;;;;;;;25.11;38.42;94496.66;1644946;87;21472;-63
2022/06/01 09:29:03;;;;;;;3.85;2.42;;;;;;;25.19;37.63;94503.14;1644479;84;21208;-64
2022/06/01 09:31:40;;;;;;;4.03;2.40;;;;;;;25.20;37.66;94501.84;1665253;85;21119;-61
2022/06/01 09:34:37;;;;;;;9.80;2.80;;;;;;;25.27;37.97;94494.88;1665952;84;21136;-62
2022/06/01 09:37:16;;;;;;;6.85;2.55;;;;;;;25.49;38.99;94494.98;1637498;85;21152;-65
2022/06/01 09:39:53;;;;;;;8.60;2.60;;;;;;;25.65;37.77;94498.04;1639933;87;21124;-62
2022/06/01 09:42:35;;;;;;;5.08;2.30;;;;;;;25.61;37.34;94497.61;1663367;85;21106;-61
2022/06/01 09:45:10;;;;;;;3.12;1.85;;;;;;;25.48;36.75;94499.85;1621575;86;21569;-63
2022/06/01 09:47:43;;;;;;;5.15;2.35;;;;;;;25.33;36.98;94490.52;1617716;86;22220;-61
2022/06/01 09:50:32;;;;;;;9.25;3.50;;;;;;;25.27;37.76;94499.09;1667794;84;20950;-61
2022/06/01 09:53:12;;;;;;;13.58;3.20;;;;;;;25.27;37.53;94491.31;1668951;84;21123;-62
2022/06/01 09:56:00;;;;;;;7.85;2.60;;;;;;;25.32;36.76;94494.64;1668600;84;21119;-60
2022/06/01 10:07:00;;;;;;;10.98;2.65;;;;;;;25.44;37.45;94487.41;1674613;84;21138;-59
2022/06/01 10:09:30;;;;;;;15.95;2.75;;;;;;;25.74;36.65;94493.30;1672247;84;21514;-65
2022/06/01 10:11:57;;;;;;;4.85;2.10;;;;;;;25.97;36.31;94487.30;1642910;87;21073;-60
2022/06/01 10:14:34;;;;;;;9.25;2.20;;;;;;;26.21;35.12;94487.55;1640189;87;21161;-61
2022/06/01 10:17:21;;;;;;;3.75;1.80;;;;;;;26.42;34.52;94484.77;1640489;86;21092;-63
2022/06/01 10:19:59;;;;;;;6.92;3.00;;;;;;;26.62;33.98;94474.06;1666432;84;21065;-62
2022/06/01 10:23:00;;;;;;;15.43;3.12;;;;;;;26.76;33.89;94479.67;1653709;84;21096;-62
2022/06/01 10:25:47;;;;;;;7.53;2.10;;;;;;;26.80;34.54;94477.88;1701584;84;21520;-61
2022/06/01 10:28:36;;;;;;;7.22;2.33;;;;;;;27.03;34.00;94466.75;1658727;84;21145;-62
2022/06/01 10:31:04;;;;;;;5.33;2.42;;;;;;;27.27;33.71;94479.00;1659418;85;21033;-60
2022/06/01 10:33:44;;;;;;;6.40;2.30;;;;;;;27.28;33.42;94481.92;1637244;86;20994;-59
2022/06/01 10:36:22;;;;;;;5.22;2.17;;;;;;;27.42;33.00;94471.93;1670397;84;21079;-60
2022/06/01 10:39:11;;;;;;;9.35;1.92;;;;;;;27.60;33.86;94460.91;1664764;84;21179;-61
2022/06/01 10:41:43;;;;;;;4.53;1.95;;;;;;;27.97;32.76;94460.16;1637908;86;21857;-65
2022/06/01 10:44:27;;;;;;;7.42;2.08;;;;;;;28.18;32.12;94462.14;1644527;84;21101;-57
2022/06/01 10:47:21;;;;;;;9.70;2.25;;;;;;;28.36;32.16;94470.89;1646102;85;21055;-59
2022/06/01 10:50:10;;;;;;;9.55;2.10;;;;;;;28.34;30.48;94469.27;1654633;84;21071;-62
2022/06/01 10:52:55;;;;;;;4.72;1.82;;;;;;;28.43;30.14;94472.26;1669059;84;21085;-61
2022/06/01 10:55:39;;;;;;;3.37;1.75;;;;;;;28.57;30.14;94474.22;1664261;84;21143;-61
2022/06/01 10:58:06;;;;;;;8.58;1.90;;;;;;;28.40;30.48;94469.84;1646051;85;21453;-62
2022/06/01 11:00:51;;;;;;;6.75;1.80;;;;;;;28.79;30.67;94474.11;1642280;86;21023;-65
2022/06/01 11:03:35;;;;;;;8.10;1.50;;;;;;;28.96;29.52;94477.77;1642549;86;21223;-59
2022/06/01 11:06:29;;;;;;;4.58;1.80;;;;;;;28.59;30.08;94477.23;1633933;86;21111;-61
2022/06/01 11:09:25;;;;;;;10.25;2.12;;;;;;;28.29;30.91;94475.86;1648193;84;21083;-61
2022/06/01 11:12:33;;;;;;;4.72;2.17;;;;;;;28.28;30.60;94482.20;1664143;84;21048;-65
2022/06/01 11:15:33;;;;;;;4.90;1.65;;;;;;;28.12;30.51;94481.37;1662521;84;21076;-61
2022/06/01 11:18:37;;;;;;;7.97;3.22;;;;;;;28.17;30.46;94478.99;1655037;85;21081;-61
2022/06/01 11:21:22;;;;;;;7.10;1.75;;;;;;;28.43;31.02;94474.36;1662826;84;20973;-61
2022/06/01 11:24:05;;;;;;;8.28;2.10;;;;;;;29.20;32.47;94469.97;1637436;86;21527;-62
2022/06/01 11:27:20;;;;;;;12.00;2.10;;;;;;;30.02;31.29;94473.02;1667606;84;21122;-64
2022/06/01 11:30:11;;;;;;;10.28;1.75;;;;;;;30.45;29.17;94473.03;1661867;85;21123;-63
2022/06/01 11:32:56;;;;;;;4.92;1.65;;;;;;;30.76;28.75;94469.97;1669877;85;21057;-61
2022/06/01 11:35:40;;;;;;;7.22;1.90;;;;;;;30.60;28.70;94475.09;1624113;87;21564;-59
2022/06/01 11:38:16;;;;;;;6.17;1.87;;;;;;;30.47;28.27;94471.81;1602075;87;21140;-60
2022/06/01 11:40:49;;;;;;;13.05;2.87;;;;;;;30.52;28.55;94465.13;1637263;86;20986;-60
2022/06/01 11:43:36;;;;;;;7.97;2.47;;;;;;;30.84;28.45;94466.39;1666077;84;21336;-60
2022/06/01 11:46:25;;;;;;;9.60;1.80;;;;;;;31.32;27.70;94466.04;1640794;86;21068;-60
2022/06/01 11:48:57;;;;;;;5.58;1.82;;;;;;;31.64;27.92;94458.64;1638102;87;21085;-61
2022/06/01 11:51:38;;;;;;;7.70;1.60;;;;;;;32.12;27.10;94454.63;1660825;85;21227;-61
2022/06/01 11:54:09;;;;;;;6.05;1.85;;;;;;;32.30;26.11;94458.89;1666845;85;21234;-61
2022/06/01 11:56:47;;;;;;;;;;;;;;;32.55;26.33;94458.70;1614592;86;21017;-62
2022/06/01 11:59:22;;;;;;;4.40;1.45;;;;;;;32.92;26.22;94462.17;1665419;85;20819;-62
2022/06/01 12:02:06;;;;;;;7.95;1.95;;;;;;;33.26;26.25;94455.48;1648754;85;20957;-61
2022/06/01 12:04:43;;;;;;;9.28;2.15;;;;;;;33.53;24.43;94464.56;1640457;85;21080;-61
2022/06/01 12:07:15;;;;;;;2.83;1.70;;;;;;;33.05;25.70;94460.28;1651925;85;21020;-59
2022/06/01 12:10:19;;;;;;;6.97;2.25;;;;;;;32.43;26.15;94456.36;1665922;85;21052;-55
2022/06/01 12:13:04;;;;;;;5.15;1.77;;;;;;;31.78;27.19;94454.83;1658420;84;21087;-62
2022/06/01 12:15:40;;;;;;;4.87;1.92;;;;;;;31.05;28.04;94457.47;1667690;84;21063;-61
2022/06/01 12:18:22;;;;;;;3.00;2.10;;;;;;;30.48;28.44;94464.11;1641744;85;22007;-58
2022/06/01 12:20:53;;;;;;;4.20;1.80;;;;;;;29.89;29.89;94460.52;1663716;85;21593;-60
2022/06/01 12:29:07;;;;;;;5.70;2.22;;;;;;;28.38;31.77;94464.73;1648382;85;21096;-63